sensor_id;sensor_type;location;lat;lon;timestamp;P1;durP1;ratioP1;P2;durP2;ratioP2
48647;SDS011;34437;-33.956;151.076;2022-10-23T00:00:51;6.32;;;2.55;;
48647;SDS011;34437;-33.956;151.076;2022-10-23T00:03:14;5.07;;;2.55;;
48647;SDS011;34437;-33.956;151.076;2022-10-23T00:05:38;5.68;;;2.60;;
48647;SDS011;34437;-33.956;151.076;2022-10-23T00:08:04;4.93;;;2.60;;
48647;SDS011;34437;-33.956;151.076;2022-10-23T00:10:27;5.68;;;2.53;;
48647;SDS011;34437;-33.956;151.076;2022-10-23T00:15:14;4.40;;;2.17;;
48647;SDS011;34437;-33.956;151.076;2022-10-23T00:17:38;6.00;;;2.90;;
48647;SDS011;34437;-33.956;151.076;2022-10-23T00:20:01;5.93;;;2.67;;
48647;SDS011;34437;-33.956;151.076;2022-10-23T00:22:26;4.72;;;2.35;;
48647;SDS011;34437;-33.956;151.076;2022-10-23T00:24:48;5.30;;;2.60;;
48647;SDS011;34437;-33.956;151.076;2022-10-23T00:27:11;5.28;;;2.50;;
48647;SDS011;34437;-33.956;151.076;2022-10-23T00:29:33;4.55;;;2.30;;
48647;SDS011;34437;-33.956;151.076;2022-10-23T00:31:56;11.13;;;3.60;;
48647;SDS011;34437;-33.956;151.076;2022-10-23T00:34:19;9.50;;;3.35;;
48647;SDS011;34437;-33.956;151.076;2022-10-23T00:36:41;9.60;;;3.50;;
48647;SDS011;34437;-33.956;151.076;2022-10-23T00:39:04;9.82;;;3.30;;
48647;SDS011;34437;-33.956;151.076;2022-10-23T00:41:27;6.00;;;2.83;;
48647;SDS011;34437;-33.956;151.076;2022-10-23T00:44:00;4.25;;;2.80;;
48647;SDS011;34437;-33.956;151.076;2022-10-23T00:46:49;7.30;;;3.10;;
48647;SDS011;34437;-33.956;151.076;2022-10-23T00:49:12;5.18;;;2.83;;
48647;SDS011;34437;-33.956;151.076;2022-10-23T00:51:37;7.43;;;3.05;;
48647;SDS011;34437;-33.956;151.076;2022-10-23T00:54:11;4.85;;;2.85;;
48647;SDS011;34437;-33.956;151.076;2022-10-23T00:56:37;7.50;;;3.10;;
48647;SDS011;34437;-33.956;151.076;2022-10-23T00:59:02;3.95;;;2.60;;
48647;SDS011;34437;-33.956;151.076;2022-10-23T01:01:25;5.35;;;2.78;;
48647;SDS011;34437;-33.956;151.076;2022-10-23T01:03:47;4.78;;;2.60;;
48647;SDS011;34437;-33.956;151.076;2022-10-23T01:06:32;7.50;;;2.15;;
48647;SDS011;34437;-33.956;151.076;2022-10-23T01:09:07;5.38;;;2.38;;
48647;SDS011;34437;-33.956;151.076;2022-10-23T01:14:30;4.47;;;1.85;;
48647;SDS011;34437;-33.956;151.076;2022-10-23T01:17:34;3.13;;;1.60;;
48647;SDS011;34437;-33.956;151.076;2022-10-23T01:23:04;5.73;;;2.10;;
48647;SDS011;34437;-33.956;151.076;2022-10-23T01:28:04;2.40;;;1.77;;
48647;SDS011;34437;-33.956;151.076;2022-10-23T01:30:31;2.25;;;1.42;;
48647;SDS011;34437;-33.956;151.076;2022-10-23T01:32:57;2.85;;;1.80;;
48647;SDS011;34437;-33.956;151.076;2022-10-23T01:38:16;1.92;;;1.58;;
48647;SDS011;34437;-33.956;151.076;2022-10-23T01:41:19;2.88;;;1.70;;
48647;SDS011;34437;-33.956;151.076;2022-10-23T01:44:08;3.72;;;1.77;;
48647;SDS011;34437;-33.956;151.076;2022-10-23T01:46:32;3.75;;;1.38;;
48647;SDS011;34437;-33.956;151.076;2022-10-23T01:48:57;2.33;;;1.75;;
48647;SDS011;34437;-33.956;151.076;2022-10-23T01:51:23;2.30;;;1.48;;
48647;SDS011;34437;-33.956;151.076;2022-10-23T01:53:49;2.97;;;1.52;;
48647;SDS011;34437;-33.956;151.076;2022-10-23T01:56:19;3.17;;;1.60;;
48647;SDS011;34437;-33.956;151.076;2022-10-23T01:58:47;3.88;;;1.90;;
48647;SDS011;34437;-33.956;151.076;2022-10-23T02:01:13;3.05;;;1.45;;
48647;SDS011;34437;-33.956;151.076;2022-10-23T02:03:38;2.38;;;1.58;;
48647;SDS011;34437;-33.956;151.076;2022-10-23T02:06:03;2.95;;;1.83;;
48647;SDS011;34437;-33.956;151.076;2022-10-23T02:08:26;2.88;;;1.70;;
48647;SDS011;34437;-33.956;151.076;2022-10-23T02:10:53;2.88;;;1.45;;
48647;SDS011;34437;-33.956;151.076;2022-10-23T02:13:58;3.90;;;1.70;;
48647;SDS011;34437;-33.956;151.076;2022-10-23T02:21:07;2.50;;;1.40;;
48647;SDS011;34437;-33.956;151.076;2022-10-23T02:23:39;2.90;;;1.88;;
48647;SDS011;34437;-33.956;151.076;2022-10-23T02:26:33;3.28;;;1.52;;
48647;SDS011;34437;-33.956;151.076;2022-10-23T02:29:30;3.42;;;1.40;;
48647;SDS011;34437;-33.956;151.076;2022-10-23T02:31:59;2.88;;;1.70;;
48647;SDS011;34437;-33.956;151.076;2022-10-23T02:34:22;3.17;;;1.98;;
48647;SDS011;34437;-33.956;151.076;2022-10-23T02:36:45;4.43;;;1.90;;
48647;SDS011;34437;-33.956;151.076;2022-10-23T02:39:07;3.35;;;1.92;;
48647;SDS011;34437;-33.956;151.076;2022-10-23T03:00:29;3.17;;;2.15;;
48647;SDS011;34437;-33.956;151.076;2022-10-23T03:02:54;2.88;;;2.08;;
48647;SDS011;34437;-33.956;151.076;2022-10-23T03:05:26;4.13;;;2.20;;
48647;SDS011;34437;-33.956;151.076;2022-10-23T03:07:55;3.57;;;2.07;;
48647;SDS011;34437;-33.956;151.076;2022-10-23T03:10:19;4.10;;;2.30;;
48647;SDS011;34437;-33.956;151.076;2022-10-23T03:12:41;3.65;;;1.92;;
48647;SDS011;34437;-33.956;151.076;2022-10-23T03:15:04;5.38;;;2.60;;
48647;SDS011;34437;-33.956;151.076;2022-10-23T03:19:50;7.18;;;2.50;;
48647;SDS011;34437;-33.956;151.076;2022-10-23T03:22:12;9.75;;;2.13;;
48647;SDS011;34437;-33.956;151.076;2022-10-23T03:24:35;6.68;;;2.05;;
48647;SDS011;34437;-33.956;151.076;2022-10-23T03:26:57;7.82;;;2.22;;
48647;SDS011;34437;-33.956;151.076;2022-10-23T03:29:20;5.35;;;1.70;;
48647;SDS011;34437;-33.956;151.076;2022-10-23T03:31:43;5.10;;;1.60;;
48647;SDS011;34437;-33.956;151.076;2022-10-23T03:34:05;3.72;;;1.65;;
48647;SDS011;34437;-33.956;151.076;2022-10-23T03:36:31;2.72;;;1.52;;
48647;SDS011;34437;-33.956;151.076;2022-10-23T03:38:53;3.58;;;1.70;;
48647;SDS011;34437;-33.956;151.076;2022-10-23T03:41:16;4.03;;;1.67;;
48647;SDS011;34437;-33.956;151.076;2022-10-23T03:43:39;5.20;;;2.17;;
48647;SDS011;34437;-33.956;151.076;2022-10-23T03:46:02;4.80;;;1.80;;
48647;SDS011;34437;-33.956;151.076;2022-10-23T03:48:29;4.30;;;2.00;;
48647;SDS011;34437;-33.956;151.076;2022-10-23T03:50:52;6.18;;;2.15;;
48647;SDS011;34437;-33.956;151.076;2022-10-23T03:53:15;6.22;;;2.00;;
48647;SDS011;34437;-33.956;151.076;2022-10-23T03:55:37;4.32;;;1.75;;
48647;SDS011;34437;-33.956;151.076;2022-10-23T03:58:00;4.00;;;1.65;;
48647;SDS011;34437;-33.956;151.076;2022-10-23T04:00:23;7.90;;;1.67;;
48647;SDS011;34437;-33.956;151.076;2022-10-23T04:02:45;4.80;;;1.85;;
48647;SDS011;34437;-33.956;151.076;2022-10-23T04:05:08;3.33;;;1.77;;
48647;SDS011;34437;-33.956;151.076;2022-10-23T04:07:30;5.38;;;1.92;;
48647;SDS011;34437;-33.956;151.076;2022-10-23T04:09:53;3.90;;;1.83;;
48647;SDS011;34437;-33.956;151.076;2022-10-23T04:12:16;3.35;;;1.67;;
48647;SDS011;34437;-33.956;151.076;2022-10-23T04:14:38;3.72;;;1.90;;
48647;SDS011;34437;-33.956;151.076;2022-10-23T04:17:01;5.82;;;1.85;;
48647;SDS011;34437;-33.956;151.076;2022-10-23T04:19:25;3.42;;;1.88;;
48647;SDS011;34437;-33.956;151.076;2022-10-23T04:21:48;4.65;;;2.30;;
48647;SDS011;34437;-33.956;151.076;2022-10-23T04:24:11;4.47;;;2.03;;
48647;SDS011;34437;-33.956;151.076;2022-10-23T04:26:33;4.75;;;1.90;;
48647;SDS011;34437;-33.956;151.076;2022-10-23T04:28:56;2.78;;;1.77;;
48647;SDS011;34437;-33.956;151.076;2022-10-23T04:31:18;4.05;;;2.08;;
48647;SDS011;34437;-33.956;151.076;2022-10-23T04:33:41;4.18;;;2.20;;
48647;SDS011;34437;-33.956;151.076;2022-10-23T04:36:04;4.75;;;2.05;;
48647;SDS011;34437;-33.956;151.076;2022-10-23T04:38:27;5.18;;;2.05;;
48647;SDS011;34437;-33.956;151.076;2022-10-23T04:40:49;3.63;;;1.90;;
48647;SDS011;34437;-33.956;151.076;2022-10-23T04:43:12;3.50;;;2.00;;
48647;SDS011;34437;-33.956;151.076;2022-10-23T04:45:34;4.28;;;2.30;;
48647;SDS011;34437;-33.956;151.076;2022-10-23T04:47:57;5.90;;;2.50;;
48647;SDS011;34437;-33.956;151.076;2022-10-23T04:50:19;4.88;;;2.38;;
48647;SDS011;34437;-33.956;151.076;2022-10-23T04:52:42;5.70;;;2.75;;
48647;SDS011;34437;-33.956;151.076;2022-10-23T04:55:05;5.07;;;2.90;;
48647;SDS011;34437;-33.956;151.076;2022-10-23T04:57:28;4.40;;;2.67;;
48647;SDS011;34437;-33.956;151.076;2022-10-23T04:59:51;7.00;;;2.90;;
48647;SDS011;34437;-33.956;151.076;2022-10-23T05:02:13;4.88;;;2.65;;
48647;SDS011;34437;-33.956;151.076;2022-10-23T05:04:36;4.05;;;2.40;;
48647;SDS011;34437;-33.956;151.076;2022-10-23T05:06:59;6.10;;;2.85;;
48647;SDS011;34437;-33.956;151.076;2022-10-23T05:09:21;7.22;;;2.75;;
48647;SDS011;34437;-33.956;151.076;2022-10-23T05:11:44;6.60;;;2.72;;
48647;SDS011;34437;-33.956;151.076;2022-10-23T05:14:06;5.40;;;2.85;;
48647;SDS011;34437;-33.956;151.076;2022-10-23T05:16:37;7.28;;;3.22;;
48647;SDS011;34437;-33.956;151.076;2022-10-23T05:19:00;6.45;;;2.92;;
48647;SDS011;34437;-33.956;151.076;2022-10-23T05:21:24;5.38;;;2.65;;
48647;SDS011;34437;-33.956;151.076;2022-10-23T05:23:50;5.53;;;2.65;;
48647;SDS011;34437;-33.956;151.076;2022-10-23T05:26:13;6.07;;;2.70;;
48647;SDS011;34437;-33.956;151.076;2022-10-23T05:28:36;6.55;;;3.15;;
48647;SDS011;34437;-33.956;151.076;2022-10-23T05:30:58;4.50;;;2.50;;
48647;SDS011;34437;-33.956;151.076;2022-10-23T05:33:23;4.20;;;2.70;;
48647;SDS011;34437;-33.956;151.076;2022-10-23T05:35:47;4.70;;;2.80;;
48647;SDS011;34437;-33.956;151.076;2022-10-23T05:38:09;4.13;;;2.47;;
48647;SDS011;34437;-33.956;151.076;2022-10-23T05:40:33;5.68;;;2.95;;
48647;SDS011;34437;-33.956;151.076;2022-10-23T05:42:56;6.75;;;2.83;;
48647;SDS011;34437;-33.956;151.076;2022-10-23T05:45:18;5.22;;;2.60;;
48647;SDS011;34437;-33.956;151.076;2022-10-23T05:47:44;6.28;;;2.80;;
48647;SDS011;34437;-33.956;151.076;2022-10-23T05:50:07;4.40;;;2.47;;
48647;SDS011;34437;-33.956;151.076;2022-10-23T05:52:30;5.75;;;2.67;;
48647;SDS011;34437;-33.956;151.076;2022-10-23T05:54:52;6.03;;;2.58;;
48647;SDS011;34437;-33.956;151.076;2022-10-23T05:57:15;4.50;;;2.55;;
48647;SDS011;34437;-33.956;151.076;2022-10-23T05:59:38;5.30;;;2.60;;
48647;SDS011;34437;-33.956;151.076;2022-10-23T06:02:00;4.80;;;2.92;;
48647;SDS011;34437;-33.956;151.076;2022-10-23T06:04:23;7.20;;;3.20;;
48647;SDS011;34437;-33.956;151.076;2022-10-23T06:06:46;5.20;;;2.65;;
48647;SDS011;34437;-33.956;151.076;2022-10-23T06:09:08;5.93;;;3.05;;
48647;SDS011;34437;-33.956;151.076;2022-10-23T06:11:31;6.70;;;2.92;;
48647;SDS011;34437;-33.956;151.076;2022-10-23T06:13:53;8.10;;;2.75;;
48647;SDS011;34437;-33.956;151.076;2022-10-23T06:16:22;4.68;;;2.90;;
48647;SDS011;34437;-33.956;151.076;2022-10-23T06:18:47;6.78;;;2.72;;
48647;SDS011;34437;-33.956;151.076;2022-10-23T06:21:10;5.75;;;2.90;;
48647;SDS011;34437;-33.956;151.076;2022-10-23T06:23:35;4.65;;;2.70;;
48647;SDS011;34437;-33.956;151.076;2022-10-23T06:25:58;5.00;;;3.10;;
48647;SDS011;34437;-33.956;151.076;2022-10-23T06:28:21;5.70;;;2.70;;
48647;SDS011;34437;-33.956;151.076;2022-10-23T06:30:44;5.25;;;3.08;;
48647;SDS011;34437;-33.956;151.076;2022-10-23T06:33:06;5.28;;;3.20;;
48647;SDS011;34437;-33.956;151.076;2022-10-23T06:35:29;4.53;;;3.08;;
48647;SDS011;34437;-33.956;151.076;2022-10-23T06:37:51;8.60;;;3.50;;
48647;SDS011;34437;-33.956;151.076;2022-10-23T06:40:14;7.78;;;3.30;;
48647;SDS011;34437;-33.956;151.076;2022-10-23T06:42:36;5.90;;;3.03;;
48647;SDS011;34437;-33.956;151.076;2022-10-23T06:44:59;5.85;;;2.83;;
48647;SDS011;34437;-33.956;151.076;2022-10-23T06:47:22;6.30;;;3.15;;
48647;SDS011;34437;-33.956;151.076;2022-10-23T06:49:44;5.70;;;2.83;;
48647;SDS011;34437;-33.956;151.076;2022-10-23T06:52:07;6.78;;;3.30;;
48647;SDS011;34437;-33.956;151.076;2022-10-23T06:54:29;5.32;;;3.05;;
48647;SDS011;34437;-33.956;151.076;2022-10-23T06:56:52;6.65;;;3.30;;
48647;SDS011;34437;-33.956;151.076;2022-10-23T06:59:14;5.53;;;2.97;;
48647;SDS011;34437;-33.956;151.076;2022-10-23T07:01:37;6.07;;;3.00;;
48647;SDS011;34437;-33.956;151.076;2022-10-23T07:04:00;5.53;;;3.00;;
48647;SDS011;34437;-33.956;151.076;2022-10-23T07:06:22;6.25;;;3.10;;
48647;SDS011;34437;-33.956;151.076;2022-10-23T07:08:45;5.88;;;3.00;;
48647;SDS011;34437;-33.956;151.076;2022-10-23T07:11:08;5.53;;;2.80;;
48647;SDS011;34437;-33.956;151.076;2022-10-23T07:13:34;5.85;;;3.13;;
48647;SDS011;34437;-33.956;151.076;2022-10-23T07:15:58;5.65;;;3.20;;
48647;SDS011;34437;-33.956;151.076;2022-10-23T07:18:28;5.82;;;2.97;;
48647;SDS011;34437;-33.956;151.076;2022-10-23T07:20:56;6.03;;;2.85;;
48647;SDS011;34437;-33.956;151.076;2022-10-23T07:23:19;6.00;;;3.13;;
48647;SDS011;34437;-33.956;151.076;2022-10-23T07:25:41;7.65;;;2.97;;
48647;SDS011;34437;-33.956;151.076;2022-10-23T07:28:04;5.72;;;2.90;;
48647;SDS011;34437;-33.956;151.076;2022-10-23T07:30:26;8.32;;;3.00;;
48647;SDS011;34437;-33.956;151.076;2022-10-23T07:32:49;7.45;;;3.40;;
48647;SDS011;34437;-33.956;151.076;2022-10-23T07:35:12;8.70;;;3.55;;
48647;SDS011;34437;-33.956;151.076;2022-10-23T07:37:35;5.80;;;2.87;;
48647;SDS011;34437;-33.956;151.076;2022-10-23T07:39:58;6.05;;;3.30;;
48647;SDS011;34437;-33.956;151.076;2022-10-23T07:42:20;5.65;;;3.10;;
48647;SDS011;34437;-33.956;151.076;2022-10-23T07:44:43;6.45;;;3.17;;
48647;SDS011;34437;-33.956;151.076;2022-10-23T07:47:05;8.60;;;5.10;;
48647;SDS011;34437;-33.956;151.076;2022-10-23T07:49:29;8.88;;;6.68;;
48647;SDS011;34437;-33.956;151.076;2022-10-23T07:51:52;13.73;;;10.82;;
48647;SDS011;34437;-33.956;151.076;2022-10-23T07:54:14;14.18;;;11.77;;
48647;SDS011;34437;-33.956;151.076;2022-10-23T07:56:37;17.92;;;16.02;;
48647;SDS011;34437;-33.956;151.076;2022-10-23T07:58:59;20.50;;;18.60;;
48647;SDS011;34437;-33.956;151.076;2022-10-23T08:01:24;23.23;;;20.73;;
48647;SDS011;34437;-33.956;151.076;2022-10-23T08:03:53;23.15;;;20.85;;
48647;SDS011;34437;-33.956;151.076;2022-10-23T08:06:16;23.13;;;21.02;;
48647;SDS011;34437;-33.956;151.076;2022-10-23T08:08:38;22.58;;;20.25;;
48647;SDS011;34437;-33.956;151.076;2022-10-23T08:11:01;20.90;;;19.00;;
48647;SDS011;34437;-33.956;151.076;2022-10-23T08:13:23;20.98;;;18.90;;
48647;SDS011;34437;-33.956;151.076;2022-10-23T08:15:46;21.52;;;19.33;;
48647;SDS011;34437;-33.956;151.076;2022-10-23T08:18:10;24.77;;;22.52;;
48647;SDS011;34437;-33.956;151.076;2022-10-23T08:20:51;25.25;;;22.65;;
48647;SDS011;34437;-33.956;151.076;2022-10-23T08:23:15;27.45;;;24.73;;
48647;SDS011;34437;-33.956;151.076;2022-10-23T08:25:39;26.40;;;23.83;;
48647;SDS011;34437;-33.956;151.076;2022-10-23T08:28:01;27.63;;;25.02;;
48647;SDS011;34437;-33.956;151.076;2022-10-23T08:30:24;27.15;;;24.55;;
48647;SDS011;34437;-33.956;151.076;2022-10-23T08:32:47;26.83;;;24.33;;
48647;SDS011;34437;-33.956;151.076;2022-10-23T08:35:10;29.42;;;26.60;;
48647;SDS011;34437;-33.956;151.076;2022-10-23T08:37:32;28.25;;;25.50;;
48647;SDS011;34437;-33.956;151.076;2022-10-23T08:39:55;29.17;;;26.45;;
48647;SDS011;34437;-33.956;151.076;2022-10-23T08:42:22;29.10;;;26.38;;
48647;SDS011;34437;-33.956;151.076;2022-10-23T08:44:55;30.00;;;27.02;;
48647;SDS011;34437;-33.956;151.076;2022-10-23T08:47:46;29.83;;;26.85;;
48647;SDS011;34437;-33.956;151.076;2022-10-23T08:50:31;29.70;;;26.52;;
48647;SDS011;34437;-33.956;151.076;2022-10-23T08:53:03;31.30;;;28.10;;
48647;SDS011;34437;-33.956;151.076;2022-10-23T08:55:41;34.72;;;29.45;;
48647;SDS011;34437;-33.956;151.076;2022-10-23T09:00:38;31.63;;;28.42;;
48647;SDS011;34437;-33.956;151.076;2022-10-23T09:03:03;31.35;;;27.83;;
48647;SDS011;34437;-33.956;151.076;2022-10-23T09:05:29;28.60;;;25.77;;
48647;SDS011;34437;-33.956;151.076;2022-10-23T09:18:39;25.92;;;23.20;;
48647;SDS011;34437;-33.956;151.076;2022-10-23T09:21:06;25.75;;;23.05;;
48647;SDS011;34437;-33.956;151.076;2022-10-23T09:23:31;24.08;;;21.58;;
48647;SDS011;34437;-33.956;151.076;2022-10-23T09:25:53;23.75;;;21.30;;
48647;SDS011;34437;-33.956;151.076;2022-10-23T09:30:41;21.30;;;19.08;;
48647;SDS011;34437;-33.956;151.076;2022-10-23T09:38:28;21.83;;;19.45;;
48647;SDS011;34437;-33.956;151.076;2022-10-23T09:41:19;21.45;;;19.25;;
48647;SDS011;34437;-33.956;151.076;2022-10-23T09:43:42;21.63;;;19.30;;
48647;SDS011;34437;-33.956;151.076;2022-10-23T09:46:05;21.98;;;18.38;;
48647;SDS011;34437;-33.956;151.076;2022-10-23T09:48:29;20.75;;;18.67;;
48647;SDS011;34437;-33.956;151.076;2022-10-23T09:50:53;20.42;;;18.20;;
48647;SDS011;34437;-33.956;151.076;2022-10-23T09:53:31;21.25;;;18.08;;
48647;SDS011;34437;-33.956;151.076;2022-10-23T09:59:39;22.27;;;17.02;;
48647;SDS011;34437;-33.956;151.076;2022-10-23T10:01:46;27.63;;;18.70;;
48647;SDS011;34437;-33.956;151.076;2022-10-23T10:04:13;19.88;;;16.90;;
48647;SDS011;34437;-33.956;151.076;2022-10-23T10:06:36;19.45;;;16.50;;
48647;SDS011;34437;-33.956;151.076;2022-10-23T10:08:59;24.40;;;16.05;;
48647;SDS011;34437;-33.956;151.076;2022-10-23T10:11:34;17.77;;;15.30;;
48647;SDS011;34437;-33.956;151.076;2022-10-23T10:15:10;22.02;;;15.45;;
48647;SDS011;34437;-33.956;151.076;2022-10-23T10:17:23;22.27;;;15.52;;
48647;SDS011;34437;-33.956;151.076;2022-10-23T10:33:28;17.15;;;13.45;;
48647;SDS011;34437;-33.956;151.076;2022-10-23T10:36:16;16.85;;;13.75;;
48647;SDS011;34437;-33.956;151.076;2022-10-23T10:38:59;21.38;;;12.73;;
48647;SDS011;34437;-33.956;151.076;2022-10-23T10:49:30;16.58;;;12.05;;
48647;SDS011;34437;-33.956;151.076;2022-10-23T10:52:07;18.05;;;11.05;;
48647;SDS011;34437;-33.956;151.076;2022-10-23T10:57:40;27.27;;;11.18;;
48647;SDS011;34437;-33.956;151.076;2022-10-23T11:00:27;12.07;;;9.52;;
48647;SDS011;34437;-33.956;151.076;2022-10-23T11:02:58;11.88;;;9.85;;
48647;SDS011;34437;-33.956;151.076;2022-10-23T11:10:31;11.07;;;8.68;;
48647;SDS011;34437;-33.956;151.076;2022-10-23T11:12:58;10.80;;;8.73;;
48647;SDS011;34437;-33.956;151.076;2022-10-23T11:15:22;11.70;;;8.05;;
48647;SDS011;34437;-33.956;151.076;2022-10-23T11:17:57;13.60;;;8.32;;
48647;SDS011;34437;-33.956;151.076;2022-10-23T11:32:00;11.60;;;7.68;;
48647;SDS011;34437;-33.956;151.076;2022-10-23T11:39:27;8.63;;;6.20;;
48647;SDS011;34437;-33.956;151.076;2022-10-23T11:41:56;8.18;;;6.35;;
48647;SDS011;34437;-33.956;151.076;2022-10-23T11:47:05;9.02;;;6.25;;
48647;SDS011;34437;-33.956;151.076;2022-10-23T11:52:30;7.30;;;5.45;;
48647;SDS011;34437;-33.956;151.076;2022-10-23T11:55:03;6.27;;;5.27;;
48647;SDS011;34437;-33.956;151.076;2022-10-23T11:57:41;6.20;;;5.10;;
48647;SDS011;34437;-33.956;151.076;2022-10-23T12:00:17;6.80;;;4.95;;
48647;SDS011;34437;-33.956;151.076;2022-10-23T12:02:42;5.93;;;4.72;;
48647;SDS011;34437;-33.956;151.076;2022-10-23T12:07:58;6.88;;;4.63;;
48647;SDS011;34437;-33.956;151.076;2022-10-23T12:10:26;8.35;;;5.28;;
48647;SDS011;34437;-33.956;151.076;2022-10-23T12:12:57;6.50;;;4.13;;
48647;SDS011;34437;-33.956;151.076;2022-10-23T12:15:24;6.03;;;4.55;;
48647;SDS011;34437;-33.956;151.076;2022-10-23T12:17:47;10.35;;;4.35;;
48647;SDS011;34437;-33.956;151.076;2022-10-23T12:20:25;8.52;;;4.47;;
48647;SDS011;34437;-33.956;151.076;2022-10-23T12:28:36;5.93;;;4.07;;
48647;SDS011;34437;-33.956;151.076;2022-10-23T12:42:10;5.50;;;3.40;;
48647;SDS011;34437;-33.956;151.076;2022-10-23T12:44:39;4.30;;;2.90;;
48647;SDS011;34437;-33.956;151.076;2022-10-23T12:47:04;5.05;;;3.42;;
48647;SDS011;34437;-33.956;151.076;2022-10-23T12:49:28;4.63;;;3.67;;
48647;SDS011;34437;-33.956;151.076;2022-10-23T12:54:49;6.65;;;3.10;;
48647;SDS011;34437;-33.956;151.076;2022-10-23T12:57:58;4.90;;;3.38;;
48647;SDS011;34437;-33.956;151.076;2022-10-23T13:00:06;11.05;;;3.22;;
48647;SDS011;34437;-33.956;151.076;2022-10-23T13:02:33;5.00;;;3.10;;
48647;SDS011;34437;-33.956;151.076;2022-10-23T13:04:56;5.65;;;2.95;;
48647;SDS011;34437;-33.956;151.076;2022-10-23T13:07:27;4.28;;;2.85;;
48647;SDS011;34437;-33.956;151.076;2022-10-23T13:09:52;4.35;;;2.67;;
48647;SDS011;34437;-33.956;151.076;2022-10-23T13:12:33;4.20;;;2.70;;
48647;SDS011;34437;-33.956;151.076;2022-10-23T13:15:01;5.88;;;2.47;;
48647;SDS011;34437;-33.956;151.076;2022-10-23T13:17:33;3.65;;;2.47;;
48647;SDS011;34437;-33.956;151.076;2022-10-23T13:19:56;3.80;;;2.65;;
48647;SDS011;34437;-33.956;151.076;2022-10-23T13:22:35;4.20;;;2.67;;
48647;SDS011;34437;-33.956;151.076;2022-10-23T13:25:01;3.60;;;2.42;;
48647;SDS011;34437;-33.956;151.076;2022-10-23T13:27:31;3.63;;;2.10;;
48647;SDS011;34437;-33.956;151.076;2022-10-23T13:29:54;4.10;;;2.60;;
48647;SDS011;34437;-33.956;151.076;2022-10-23T13:32:23;3.75;;;2.45;;
48647;SDS011;34437;-33.956;151.076;2022-10-23T13:34:55;5.15;;;2.38;;
48647;SDS011;34437;-33.956;151.076;2022-10-23T13:37:24;4.22;;;2.50;;
48647;SDS011;34437;-33.956;151.076;2022-10-23T13:40:05;10.75;;;2.67;;
48647;SDS011;34437;-33.956;151.076;2022-10-23T13:42:40;3.10;;;2.08;;
48647;SDS011;34437;-33.956;151.076;2022-10-23T13:45:04;4.80;;;2.20;;
48647;SDS011;34437;-33.956;151.076;2022-10-23T13:53:13;5.32;;;2.58;;
48647;SDS011;34437;-33.956;151.076;2022-10-23T13:55:36;6.43;;;2.47;;
48647;SDS011;34437;-33.956;151.076;2022-10-23T13:58:03;5.03;;;2.20;;
48647;SDS011;34437;-33.956;151.076;2022-10-23T14:00:26;11.07;;;2.42;;
48647;SDS011;34437;-33.956;151.076;2022-10-23T14:02:48;3.80;;;2.13;;
48647;SDS011;34437;-33.956;151.076;2022-10-23T14:05:11;3.05;;;2.20;;
48647;SDS011;34437;-33.956;151.076;2022-10-23T14:07:33;3.80;;;2.20;;
48647;SDS011;34437;-33.956;151.076;2022-10-23T14:09:56;5.47;;;1.90;;
48647;SDS011;34437;-33.956;151.076;2022-10-23T14:12:19;11.35;;;2.30;;
48647;SDS011;34437;-33.956;151.076;2022-10-23T14:14:41;5.80;;;2.00;;
48647;SDS011;34437;-33.956;151.076;2022-10-23T14:17:04;9.18;;;2.38;;
48647;SDS011;34437;-33.956;151.076;2022-10-23T14:19:26;8.98;;;2.20;;
48647;SDS011;34437;-33.956;151.076;2022-10-23T14:21:49;6.88;;;2.13;;
48647;SDS011;34437;-33.956;151.076;2022-10-23T14:24:11;4.32;;;1.80;;
48647;SDS011;34437;-33.956;151.076;2022-10-23T14:26:34;4.75;;;1.92;;
48647;SDS011;34437;-33.956;151.076;2022-10-23T14:28:57;9.18;;;1.90;;
48647;SDS011;34437;-33.956;151.076;2022-10-23T14:31:20;7.82;;;1.95;;
48647;SDS011;34437;-33.956;151.076;2022-10-23T14:33:44;4.75;;;1.90;;
48647;SDS011;34437;-33.956;151.076;2022-10-23T14:36:07;10.55;;;2.00;;
48647;SDS011;34437;-33.956;151.076;2022-10-23T14:38:30;4.07;;;2.20;;
48647;SDS011;34437;-33.956;151.076;2022-10-23T14:40:52;5.72;;;1.85;;
48647;SDS011;34437;-33.956;151.076;2022-10-23T14:43:15;5.40;;;2.25;;
48647;SDS011;34437;-33.956;151.076;2022-10-23T14:45:38;5.28;;;1.70;;
48647;SDS011;34437;-33.956;151.076;2022-10-23T14:48:01;7.38;;;1.90;;
48647;SDS011;34437;-33.956;151.076;2022-10-23T14:50:23;4.47;;;1.90;;
48647;SDS011;34437;-33.956;151.076;2022-10-23T14:52:46;5.57;;;1.88;;
48647;SDS011;34437;-33.956;151.076;2022-10-23T14:55:09;3.83;;;1.95;;
48647;SDS011;34437;-33.956;151.076;2022-10-23T14:57:31;3.50;;;1.73;;
48647;SDS011;34437;-33.956;151.076;2022-10-23T14:59:54;4.15;;;1.83;;
48647;SDS011;34437;-33.956;151.076;2022-10-23T15:02:17;4.68;;;1.80;;
48647;SDS011;34437;-33.956;151.076;2022-10-23T15:04:40;7.55;;;2.05;;
48647;SDS011;34437;-33.956;151.076;2022-10-23T15:07:02;3.55;;;1.88;;
48647;SDS011;34437;-33.956;151.076;2022-10-23T15:09:25;4.22;;;1.80;;
48647;SDS011;34437;-33.956;151.076;2022-10-23T15:11:48;10.73;;;2.22;;
48647;SDS011;34437;-33.956;151.076;2022-10-23T15:14:11;3.85;;;1.50;;
48647;SDS011;34437;-33.956;151.076;2022-10-23T15:16:33;3.85;;;1.92;;
48647;SDS011;34437;-33.956;151.076;2022-10-23T15:19:01;3.53;;;1.48;;
48647;SDS011;34437;-33.956;151.076;2022-10-23T15:21:23;5.65;;;1.70;;
48647;SDS011;34437;-33.956;151.076;2022-10-23T15:23:46;8.25;;;1.60;;
48647;SDS011;34437;-33.956;151.076;2022-10-23T15:26:11;17.10;;;2.45;;
48647;SDS011;34437;-33.956;151.076;2022-10-23T15:28:40;4.22;;;1.70;;
48647;SDS011;34437;-33.956;151.076;2022-10-23T15:31:02;5.63;;;1.75;;
48647;SDS011;34437;-33.956;151.076;2022-10-23T15:33:26;4.28;;;1.50;;
48647;SDS011;34437;-33.956;151.076;2022-10-23T15:35:49;3.45;;;1.88;;
48647;SDS011;34437;-33.956;151.076;2022-10-23T15:38:12;2.90;;;1.60;;
48647;SDS011;34437;-33.956;151.076;2022-10-23T15:40:35;3.63;;;1.60;;
48647;SDS011;34437;-33.956;151.076;2022-10-23T15:42:58;3.63;;;1.65;;
48647;SDS011;34437;-33.956;151.076;2022-10-23T15:45:20;3.30;;;1.88;;
48647;SDS011;34437;-33.956;151.076;2022-10-23T15:47:43;3.88;;;1.63;;
48647;SDS011;34437;-33.956;151.076;2022-10-23T15:50:06;4.72;;;1.52;;
48647;SDS011;34437;-33.956;151.076;2022-10-23T15:52:29;4.45;;;2.10;;
48647;SDS011;34437;-33.956;151.076;2022-10-23T15:54:51;2.47;;;1.42;;
48647;SDS011;34437;-33.956;151.076;2022-10-23T15:57:14;4.70;;;1.83;;
48647;SDS011;34437;-33.956;151.076;2022-10-23T15:59:36;2.70;;;1.60;;
48647;SDS011;34437;-33.956;151.076;2022-10-23T16:01:59;2.65;;;1.30;;
48647;SDS011;34437;-33.956;151.076;2022-10-23T16:04:22;5.47;;;1.65;;
48647;SDS011;34437;-33.956;151.076;2022-10-23T16:06:44;3.55;;;1.50;;
48647;SDS011;34437;-33.956;151.076;2022-10-23T16:09:07;4.93;;;1.60;;
48647;SDS011;34437;-33.956;151.076;2022-10-23T16:11:32;2.60;;;1.40;;
48647;SDS011;34437;-33.956;151.076;2022-10-23T16:13:57;3.90;;;1.35;;
48647;SDS011;34437;-33.956;151.076;2022-10-23T16:16:20;4.88;;;1.42;;
48647;SDS011;34437;-33.956;151.076;2022-10-23T16:18:43;2.60;;;1.30;;
48647;SDS011;34437;-33.956;151.076;2022-10-23T16:21:06;4.00;;;1.65;;